Time;durP1;ratioP1;P1;durP2;ratioP2;P2;SDS_P1;SDS_P2;PMS_P1;PMS_P2;Temp;Humidity;BMP_temperature;BMP_pressure;BME280_temperature;BME280_humidity;BME280_pressure;Samples;Min_cycle;Max_cycle;Signal;HPM_P1;HPM_P2
2021/09/01 00:02:23;;;;;;;4.83;1.37;;;16.00;99.90;;;;;;5008012;28;20692;-89
2021/09/01 00:04:49;;;;;;;1.00;0.90;;;16.00;99.90;;;;;;5008496;28;20183;-88
2021/09/01 00:07:14;;;;;;;10.87;1.73;;;16.00;99.90;;;;;;5009015;28;20197;-91
2021/09/01 00:09:40;;;;;;;4.67;1.73;;;16.00;99.90;;;;;;5008916;28;20214;-88
2021/09/01 00:12:07;;;;;;;3.50;1.30;;;16.00;99.90;;;;;;4998305;28;20215;-88
2021/09/01 00:14:33;;;;;;;2.37;1.10;;;16.00;99.90;;;;;;5008177;28;20298;-88
2021/09/01 00:16:58;;;;;;;7.27;2.37;;;16.00;99.90;;;;;;5007509;28;20350;-88
2021/09/01 00:19:24;;;;;;;4.80;1.83;;;15.90;99.90;;;;;;5016284;28;20195;-89
2021/09/01 00:21:50;;;;;;;3.47;1.47;;;16.00;99.90;;;;;;5017018;28;20691;-92
2021/09/01 00:24:16;;;;;;;11.37;1.80;;;15.90;99.90;;;;;;5009819;28;20222;-88
2021/09/01 00:26:43;;;;;;;2.30;1.37;;;16.00;99.90;;;;;;5007751;28;20668;-88
2021/09/01 00:29:09;;;;;;;5.60;1.90;;;15.90;99.90;;;;;;5016129;28;20255;-88
2021/09/01 00:31:35;;;;;;;4.47;1.80;;;16.00;99.90;;;;;;5017122;28;20218;-88
2021/09/01 00:34:01;;;;;;;3.20;1.37;;;16.00;99.90;;;;;;5008704;28;20187;-90
2021/09/01 00:36:26;;;;;;;3.17;2.20;;;16.00;99.90;;;;;;5016870;28;20594;-88
2021/09/01 00:38:52;;;;;;;1.47;0.83;;;15.90;99.90;;;;;;5009102;28;20206;-88
2021/09/01 00:41:27;;;;;;;3.13;1.67;;;16.00;99.90;;;;;;5007759;28;21128;-88
2021/09/01 00:43:55;;;;;;;4.70;1.43;;;16.00;99.90;;;;;;5018118;28;20618;-88
2021/09/01 00:46:24;;;;;;;7.00;2.10;;;16.00;99.90;;;;;;5017766;28;20210;-91
2021/09/01 00:48:51;;;;;;;6.47;2.70;;;15.90;99.90;;;;;;5016219;28;20710;-90
2021/09/01 00:51:17;;;;;;;4.47;2.47;;;15.90;99.90;;;;;;5018973;28;20215;-88
2021/09/01 00:53:46;;;;;;;3.67;1.80;;;15.90;99.90;;;;;;5001107;28;20245;-89
2021/09/01 00:56:21;;;;;;;4.53;1.40;;;16.00;99.90;;;;;;5014085;28;20228;-89
2021/09/01 00:58:51;;;;;;;11.03;2.10;;;16.00;99.90;;;;;;5008471;28;20194;-89
2021/09/01 01:01:17;;;;;;;3.70;1.67;;;16.10;99.90;;;;;;5001506;28;20187;-89
2021/09/01 01:03:55;;;;;;;3.13;2.07;;;16.10;99.90;;;;;;4999246;28;20214;-89
2021/09/01 01:06:22;;;;;;;4.20;1.50;;;16.10;99.90;;;;;;5015536;28;20238;-89
2021/09/01 01:08:49;;;;;;;5.80;1.97;;;16.10;99.90;;;;;;5019375;28;20250;-89
2021/09/01 01:11:15;;;;;;;1.87;1.50;;;16.10;99.90;;;;;;5019116;28;20245;-89
2021/09/01 01:13:51;;;;;;;4.63;2.03;;;16.10;99.90;;;;;;5012342;28;20194;-88
2021/09/01 01:16:18;;;;;;;15.20;2.07;;;16.10;99.90;;;;;;5023311;28;20623;-90
2021/09/01 01:18:47;;;;;;;5.13;1.63;;;16.10;99.90;;;;;;5018752;28;20261;-88
2021/09/01 01:21:18;;;;;;;7.83;2.30;;;16.20;99.90;;;;;;5016757;28;20210;-88
2021/09/01 01:23:46;;;;;;;2.33;1.17;;;16.20;99.90;;;;;;5011812;28;20257;-89
2021/09/01 01:26:12;;;;;;;7.27;1.80;;;16.20;99.90;;;;;;5017593;28;20306;-89
2021/09/01 01:28:37;;;;;;;6.50;1.50;;;16.10;99.90;;;;;;5018364;28;20287;-89
2021/09/01 01:31:03;;;;;;;2.27;2.03;;;16.10;99.90;;;;;;5011022;28;20180;-88
2021/09/01 01:33:29;;;;;;;4.87;1.77;;;16.10;99.90;;;;;;5019693;28;20236;-88
2021/09/01 01:35:54;;;;;;;2.83;1.57;;;16.10;99.90;;;;;;5010901;28;20313;-88
2021/09/01 01:38:20;;;;;;;2.70;1.33;;;16.10;99.90;;;;;;5010840;28;20691;-88
2021/09/01 01:40:47;;;;;;;6.73;1.33;;;16.10;99.90;;;;;;5020327;28;20217;-87
2021/09/01 01:43:14;;;;;;;2.90;1.70;;;16.10;99.90;;;;;;5017780;28;20182;-87
2021/09/01 01:45:42;;;;;;;2.30;1.17;;;16.10;99.90;;;;;;5011677;28;20484;-87
2021/09/01 01:48:10;;;;;;;3.10;1.40;;;16.10;99.90;;;;;;5018562;28;20268;-88
2021/09/01 01:50:36;;;;;;;3.90;1.60;;;16.10;99.90;;;;;;5010681;28;20615;-88
2021/09/01 01:53:04;;;;;;;5.00;1.30;;;16.10;99.90;;;;;;5017377;28;20215;-91
2021/09/01 01:55:30;;;;;;;4.77;1.80;;;16.10;99.90;;;;;;5019790;28;20206;-88
2021/09/01 01:57:55;;;;;;;1.97;1.37;;;16.10;99.90;;;;;;5003941;28;20696;-88
2021/09/01 02:00:21;;;;;;;3.23;1.67;;;16.20;99.90;;;;;;5010227;28;20222;-88
2021/09/01 02:02:47;;;;;;;4.50;1.37;;;16.20;99.90;;;;;;5010936;28;20242;-88
2021/09/01 02:05:13;;;;;;;2.53;1.30;;;16.20;99.90;;;;;;5010011;28;20270;-88
2021/09/01 02:07:39;;;;;;;2.20;2.00;;;16.20;99.90;;;;;;5010654;28;20199;-88
2021/09/01 02:10:07;;;;;;;5.70;2.23;;;16.20;99.90;;;;;;5012284;28;20191;-89
2021/09/01 02:12:33;;;;;;;2.80;1.47;;;16.20;99.90;;;;;;5019722;28;20309;-88
2021/09/01 02:15:00;;;;;;;4.87;1.50;;;16.20;99.90;;;;;;5010790;28;20293;-89
2021/09/01 02:17:27;;;;;;;7.97;1.80;;;16.20;99.90;;;;;;5010853;28;20246;-88
2021/09/01 02:19:53;;;;;;;3.93;1.10;;;16.20;99.90;;;;;;4999881;28;20222;-88
2021/09/01 02:22:20;;;;;;;5.93;1.60;;;16.20;99.90;;;;;;5011539;28;20230;-89
2021/09/01 02:24:46;;;;;;;4.20;1.73;;;16.20;99.90;;;;;;5009936;28;20284;-88
2021/09/01 02:27:12;;;;;;;4.80;2.37;;;16.20;99.90;;;;;;5019478;28;20250;-89
2021/09/01 02:29:38;;;;;;;4.00;1.33;;;16.20;99.90;;;;;;5018743;28;20273;-89
2021/09/01 02:32:04;;;;;;;6.43;2.13;;;16.20;99.90;;;;;;5009074;28;20700;-89
2021/09/01 02:34:31;;;;;;;2.37;1.67;;;16.20;99.90;;;;;;5017246;28;20193;-90
2021/09/01 02:36:57;;;;;;;3.70;1.93;;;16.20;99.90;;;;;;5010069;28;20202;-88
2021/09/01 02:39:23;;;;;;;5.40;1.57;;;16.20;99.90;;;;;;5009848;28;20206;-88
2021/09/01 02:41:49;;;;;;;4.83;1.47;;;16.20;99.90;;;;;;5018320;28;20704;-90
2021/09/01 02:44:15;;;;;;;3.37;1.50;;;16.20;99.90;;;;;;5009890;28;20681;-88
2021/09/01 02:46:41;;;;;;;4.53;1.77;;;16.20;99.90;;;;;;5020093;28;20186;-89
2021/09/01 02:49:07;;;;;;;5.30;2.23;;;16.20;99.90;;;;;;5019116;28;20186;-89
2021/09/01 02:51:33;;;;;;;5.33;1.43;;;16.20;99.90;;;;;;5010265;28;20294;-88
2021/09/01 02:53:59;;;;;;;2.20;1.37;;;16.20;99.90;;;;;;5016756;28;20849;-88
2021/09/01 02:56:25;;;;;;;4.27;2.10;;;16.20;99.90;;;;;;5009154;28;20221;-88
2021/09/01 02:58:51;;;;;;;2.47;1.80;;;16.20;99.90;;;;;;5008498;28;20226;-88
2021/09/01 03:01:16;;;;;;;6.63;2.00;;;16.20;99.90;;;;;;5015006;28;20206;-87
2021/09/01 03:03:42;;;;;;;4.70;1.50;;;16.20;99.90;;;;;;5000320;28;20215;-87
2021/09/01 03:06:08;;;;;;;5.67;2.00;;;16.10;99.90;;;;;;5009744;28;20326;-89
2021/09/01 03:08:34;;;;;;;5.13;1.43;;;16.20;99.90;;;;;;5009333;28;20733;-88
2021/09/01 03:11:00;;;;;;;4.20;1.47;;;16.20;99.90;;;;;;5009655;28;20221;-88
2021/09/01 03:13:26;;;;;;;3.00;1.47;;;16.20;99.90;;;;;;5009960;28;20186;-88
2021/09/01 03:15:51;;;;;;;3.63;1.90;;;16.30;99.90;;;;;;5035019;28;20240;-89
2021/09/01 03:18:17;;;;;;;2.37;1.70;;;16.30;99.90;;;;;;5002159;28;20239;-88
2021/09/01 03:20:43;;;;;;;5.53;2.23;;;16.20;99.90;;;;;;5018008;28;20210;-88
2021/09/01 03:23:09;;;;;;;2.27;1.30;;;16.20;99.90;;;;;;5009312;28;20335;-89
2021/09/01 03:25:35;;;;;;;3.90;2.10;;;16.20;99.90;;;;;;5018701;28;20190;-87
2021/09/01 03:28:01;;;;;;;1.90;1.17;;;16.20;99.90;;;;;;5020222;28;20229;-88
2021/09/01 03:30:29;;;;;;;7.73;1.93;;;16.20;99.90;;;;;;5015314;28;20226;-89
2021/09/01 03:32:56;;;;;;;3.93;1.70;;;16.20;99.90;;;;;;5019569;28;21031;-88
2021/09/01 03:35:22;;;;;;;2.80;1.63;;;16.20;99.90;;;;;;5033119;28;20245;-88
2021/09/01 03:37:48;;;;;;;2.60;1.70;;;16.20;99.90;;;;;;5015473;28;20175;-88
2021/09/01 03:40:15;;;;;;;5.40;1.70;;;16.30;99.90;;;;;;5016997;28;20186;-88
2021/09/01 03:42:40;;;;;;;2.10;1.90;;;16.30;99.90;;;;;;5009086;28;20222;-88
2021/09/01 03:45:07;;;;;;;2.30;0.83;;;16.30;99.90;;;;;;5016521;28;20241;-91
2021/09/01 03:47:33;;;;;;;6.93;2.07;;;16.30;99.90;;;;;;5009017;28;20759;-88
2021/09/01 03:50:04;;;;;;;2.80;1.47;;;16.20;99.90;;;;;;5018763;28;20242;-87
2021/09/01 03:52:30;;;;;;;3.00;2.40;;;16.30;99.90;;;;;;5014822;28;20668;-87
2021/09/01 03:54:55;;;;;;;2.93;1.93;;;16.20;99.90;;;;;;5001191;28;20215;-91
2021/09/01 03:57:21;;;;;;;3.00;1.33;;;16.20;99.90;;;;;;5007234;28;20229;-87
2021/09/01 03:59:47;;;;;;;10.43;1.90;;;16.20;99.90;;;;;;5008381;28;20242;-87
2021/09/01 04:02:12;;;;;;;4.40;1.40;;;16.20;99.90;;;;;;5008531;28;20222;-91
2021/09/01 04:04:38;;;;;;;3.97;1.60;;;16.20;99.90;;;;;;5017321;28;20551;-88
2021/09/01 04:07:04;;;;;;;5.53;1.53;;;16.20;99.90;;;;;;5008899;28;20207;-89
2021/09/01 04:09:30;;;;;;;2.33;1.57;;;16.10;99.90;;;;;;5017778;28;20238;-88
2021/09/01 04:11:56;;;;;;;2.83;1.60;;;16.10;99.90;;;;;;5008231;28;20253;-87
2021/09/01 04:14:22;;;;;;;2.53;2.07;;;16.10;99.90;;;;;;5020651;28;20215;-87
2021/09/01 04:16:48;;;;;;;3.63;1.53;;;16.10;99.90;;;;;;5008874;28;20215;-88
2021/09/01 04:19:13;;;;;;;6.67;2.20;;;16.10;99.90;;;;;;5010947;28;20191;-88
2021/09/01 04:21:39;;;;;;;4.97;1.50;;;16.20;99.90;;;;;;5009054;28;20683;-89
2021/09/01 04:24:05;;;;;;;2.33;1.33;;;16.20;99.90;;;;;;5017405;28;20214;-88
2021/09/01 04:26:31;;;;;;;5.47;1.83;;;16.20;99.90;;;;;;5016841;28;20290;-89
2021/09/01 04:28:56;;;;;;;6.87;1.97;;;16.20;99.90;;;;;;5009171;28;20218;-88
2021/09/01 04:31:22;;;;;;;3.10;1.33;;;16.20;99.90;;;;;;4983498;28;20183;-90
2021/09/01 04:33:48;;;;;;;6.63;1.67;;;16.20;99.90;;;;;;5015549;28;20265;-87
2021/09/01 04:36:14;;;;;;;3.87;1.67;;;16.30;99.90;;;;;;5017790;28;20302;-89
2021/09/01 04:38:39;;;;;;;3.80;1.40;;;16.30;99.90;;;;;;5008170;28;20303;-88
2021/09/01 04:41:05;;;;;;;4.77;1.73;;;16.30;99.90;;;;;;5007612;28;20211;-89
2021/09/01 04:43:31;;;;;;;4.87;1.60;;;16.30;99.90;;;;;;5009601;28;20206;-87
2021/09/01 04:45:57;;;;;;;4.20;1.57;;;16.20;99.90;;;;;;5003693;28;20583;-88
2021/09/01 04:48:24;;;;;;;5.40;3.03;;;16.20;99.90;;;;;;5011506;28;20346;-88
2021/09/01 04:50:51;;;;;;;2.40;1.33;;;16.20;99.90;;;;;;5022058;28;20230;-89
2021/09/01 04:53:17;;;;;;;7.83;1.80;;;16.20;99.90;;;;;;5004358;28;20309;-88
2021/09/01 04:55:43;;;;;;;1.50;1.10;;;16.20;99.90;;;;;;5022682;28;20213;-89
2021/09/01 04:58:09;;;;;;;5.37;1.77;;;16.20;99.90;;;;;;5011935;28;20187;-88
2021/09/01 05:00:35;;;;;;;2.93;1.40;;;16.20;99.90;;;;;;5012244;28;20214;-88
2021/09/01 05:03:01;;;;;;;2.87;1.50;;;16.20;99.90;;;;;;5011964;28;20244;-89
2021/09/01 05:05:27;;;;;;;4.77;1.70;;;16.10;99.90;;;;;;5020852;28;20221;-88
2021/09/01 05:07:53;;;;;;;8.33;1.53;;;16.10;99.90;;;;;;5011798;28;20580;-89
2021/09/01 05:10:19;;;;;;;2.80;1.40;;;16.20;99.90;;;;;;5012804;28;20198;-89
2021/09/01 05:12:49;;;;;;;5.17;2.43;;;16.20;99.90;;;;;;5012861;28;20223;-89
2021/09/01 05:15:15;;;;;;;2.10;1.80;;;16.20;99.90;;;;;;5011409;28;20215;-88
2021/09/01 05:17:41;;;;;;;5.97;1.33;;;16.20;99.90;;;;;;5011708;28;20257;-89
2021/09/01 05:20:08;;;;;;;7.87;2.33;;;16.20;99.90;;;;;;5011719;28;20211;-90
2021/09/01 05:22:37;;;;;;;3.20;1.43;;;16.20;99.90;;;;;;5022545;28;20202;-90
2021/09/01 05:25:07;;;;;;;2.90;1.27;;;16.30;99.90;;;;;;5019608;28;20732;-90
2021/09/01 05:27:38;;;;;;;4.93;1.20;;;16.30;99.90;;;;;;5021976;28;20657;-90
2021/09/01 05:30:07;;;;;;;1.83;1.33;;;16.30;99.90;;;;;;5012422;28;20574;-89
2021/09/01 05:32:37;;;;;;;3.33;1.33;;;16.30;99.90;;;;;;5027294;28;20211;-89
2021/09/01 05:35:04;;;;;;;3.10;1.20;;;16.30;99.90;;;;;;5007117;28;20230;-89
2021/09/01 05:37:30;;;;;;;6.53;1.13;;;16.30;99.90;;;;;;5000667;28;20214;-89
2021/09/01 05:39:58;;;;;;;4.50;1.47;;;16.30;99.90;;;;;;5004873;28;20249;-90
2021/09/01 05:42:26;;;;;;;1.03;0.87;;;16.30;99.90;;;;;;5010793;28;20260;-89
2021/09/01 05:44:53;;;;;;;4.27;1.30;;;16.30;99.90;;;;;;5019911;28;20752;-89
2021/09/01 05:47:20;;;;;;;4.03;1.77;;;16.30;99.90;;;;;;5018062;28;20207;-89
2021/09/01 05:49:48;;;;;;;2.03;1.23;;;16.30;99.90;;;;;;5019143;28;20694;-89
2021/09/01 05:52:15;;;;;;;8.07;1.40;;;16.30;99.90;;;;;;5035069;28;20183;-89
2021/09/01 05:54:48;;;;;;;3.37;1.50;;;16.30;99.90;;;;;;5009840;28;20365;-91
2021/09/01 05:57:19;;;;;;;3.60;1.03;;;16.30;99.90;;;;;;5011014;28;20624;-90
2021/09/01 05:59:56;;;;;;;2.50;1.27;;;16.30;99.90;;;;;;5034630;28;20250;-91
2021/09/01 06:02:44;;;;;;;1.27;0.93;;;16.40;99.90;;;;;;5018347;28;20249;-89
2021/09/01 06:05:10;;;;;;;4.53;1.23;;;16.40;99.90;;;;;;4984251;28;20214;-90
2021/09/01 06:08:04;;;;;;;5.33;1.73;;;16.40;99.90;;;;;;5011054;28;20703;-88
2021/09/01 06:10:32;;;;;;;4.27;1.50;;;16.40;99.90;;;;;;5019225;28;20200;-87
2021/09/01 06:13:08;;;;;;;3.03;1.30;;;16.40;99.90;;;;;;5033812;28;20261;-87
2021/09/01 06:15:37;;;;;;;2.50;1.73;;;16.50;99.90;;;;;;5021132;28;20219;-88
2021/09/01 06:18:04;;;;;;;4.37;1.63;;;16.60;99.90;;;;;;5018832;28;20235;-89
2021/09/01 06:20:30;;;;;;;3.97;1.83;;;16.50;99.90;;;;;;5018898;28;20250;-88
2021/09/01 06:22:57;;;;;;;7.03;1.47;;;16.60;99.90;;;;;;5020282;28;20318;-90
2021/09/01 06:25:23;;;;;;;4.63;1.67;;;16.60;99.90;;;;;;5011219;28;20191;-89
2021/09/01 06:27:49;;;;;;;4.67;1.60;;;16.60;99.90;;;;;;5023480;28;20685;-89
2021/09/01 06:30:15;;;;;;;5.63;2.17;;;16.70;99.90;;;;;;5018920;28;20793;-86
2021/09/01 06:32:41;;;;;;;3.00;1.10;;;16.70;99.90;;;;;;5017996;28;20242;-88
2021/09/01 06:35:08;;;;;;;4.27;1.03;;;16.80;99.90;;;;;;5020552;28;20260;-89
2021/09/01 06:37:36;;;;;;;2.37;1.27;;;16.80;99.90;;;;;;5008208;28;20196;-89
2021/09/01 06:40:02;;;;;;;3.07;1.40;;;16.90;99.90;;;;;;5020500;28;20184;-90
2021/09/01 06:42:28;;;;;;;10.00;1.60;;;16.90;99.90;;;;;;5020067;28;20219;-89
2021/09/01 06:44:54;;;;;;;5.23;1.10;;;17.00;99.90;;;;;;5020614;28;20852;-89
2021/09/01 06:47:19;;;;;;;4.80;1.93;;;16.90;99.90;;;;;;5019203;28;20317;-89
2021/09/01 06:49:45;;;;;;;8.77;1.50;;;16.90;99.90;;;;;;5008799;28;20255;-88
2021/09/01 06:52:11;;;;;;;1.93;1.13;;;16.80;99.90;;;;;;5010361;28;20191;-90
2021/09/01 06:54:37;;;;;;;9.90;1.90;;;16.80;99.90;;;;;;5018631;28;20242;-90
2021/09/01 06:57:04;;;;;;;6.00;1.20;;;16.80;99.90;;;;;;5018590;28;20286;-88
2021/09/01 06:59:30;;;;;;;7.67;1.60;;;16.80;99.90;;;;;;5018616;28;20223;-91
2021/09/01 07:01:56;;;;;;;3.53;1.77;;;16.80;99.90;;;;;;5017258;28;20710;-88
2021/09/01 07:04:22;;;;;;;1.20;1.10;;;16.90;99.90;;;;;;5009257;28;20195;-88
2021/09/01 07:06:47;;;;;;;3.10;1.13;;;16.90;99.90;;;;;;5015870;28;20260;-89
2021/09/01 07:09:13;;;;;;;2.93;2.00;;;16.80;99.90;;;;;;5009104;28;20234;-90
2021/09/01 07:11:39;;;;;;;2.03;1.07;;;16.80;99.90;;;;;;5018059;28;20222;-89
2021/09/01 07:14:06;;;;;;;6.50;1.50;;;16.90;99.90;;;;;;5009814;28;20215;-89
2021/09/01 07:16:33;;;;;;;5.67;1.23;;;16.90;99.90;;;;;;5008878;28;20206;-87
2021/09/01 07:18:58;;;;;;;1.37;1.30;;;17.00;99.90;;;;;;5009356;28;21076;-88
2021/09/01 07:21:24;;;;;;;2.77;1.57;;;17.00;99.90;;;;;;5017053;28;20220;-89
2021/09/01 07:23:50;;;;;;;1.30;1.20;;;17.00;99.90;;;;;;5009671;28;20294;-88
2021/09/01 07:26:16;;;;;;;2.63;1.43;;;17.10;99.90;;;;;;5017723;28;21343;-88
2021/09/01 07:28:42;;;;;;;4.47;1.77;;;17.10;99.90;;;;;;5008391;28;20184;-87
2021/09/01 07:31:09;;;;;;;2.33;1.40;;;17.20;99.90;;;;;;5017605;28;20279;-87
2021/09/01 07:33:36;;;;;;;1.23;1.13;;;17.30;99.90;;;;;;5017014;28;20266;-88
2021/09/01 07:36:02;;;;;;;2.03;1.30;;;17.40;99.90;;;;;;5008224;28;20210;-88
2021/09/01 07:38:28;;;;;;;5.57;1.37;;;17.50;99.90;;;;;;5007695;28;20238;-88
2021/09/01 07:40:54;;;;;;;3.13;1.20;;;17.50;99.90;;;;;;5008375;28;20218;-87
2021/09/01 07:43:20;;;;;;;7.33;1.37;;;17.40;99.90;;;;;;5001490;28;20191;-87
2021/09/01 07:45:47;;;;;;;4.40;1.67;;;17.40;99.90;;;;;;5016300;28;20801;-88
2021/09/01 07:48:14;;;;;;;1.47;1.10;;;17.40;99.90;;;;;;5016538;28;20234;-88
2021/09/01 07:50:41;;;;;;;4.87;1.87;;;17.40;99.90;;;;;;5017850;28;20770;-88
2021/09/01 07:53:07;;;;;;;3.30;1.37;;;17.50;99.90;;;;;;5007474;28;20568;-88
2021/09/01 07:55:32;;;;;;;3.97;1.03;;;17.60;99.90;;;;;;5006996;28;20225;-87
2021/09/01 07:57:58;;;;;;;2.27;1.00;;;17.70;99.90;;;;;;5008806;28;20183;-88
2021/09/01 08:00:24;;;;;;;2.70;2.03;;;17.80;99.90;;;;;;5006682;28;20218;-88
2021/09/01 08:02:51;;;;;;;5.03;1.43;;;17.70;99.90;;;;;;4991996;28;21001;-87
2021/09/01 08:05:21;;;;;;;3.33;1.63;;;17.80;99.90;;;;;;5016325;28;20756;-90
2021/09/01 08:07:47;;;;;;;2.70;1.43;;;17.80;99.90;;;;;;5017701;28;20198;-88
2021/09/01 08:10:13;;;;;;;7.50;1.97;;;17.90;99.90;;;;;;5007233;28;20659;-87
2021/09/01 08:12:40;;;;;;;6.63;1.83;;;17.90;99.90;;;;;;5007477;28;20558;-88
2021/09/01 08:15:08;;;;;;;3.87;1.60;;;18.00;99.90;;;;;;4999635;28;20356;-89
2021/09/01 08:17:33;;;;;;;5.03;1.53;;;18.00;99.90;;;;;;5007916;28;20250;-92
2021/09/01 08:19:59;;;;;;;4.60;1.60;;;17.90;99.90;;;;;;5008778;28;20218;-95
2021/09/01 08:22:25;;;;;;;3.17;1.73;;;18.00;99.90;;;;;;5010326;28;20226;-88
2021/09/01 08:24:51;;;;;;;1.77;1.23;;;18.20;99.90;;;;;;5019745;28;20215;-89
2021/09/01 08:27:17;;;;;;;9.37;2.13;;;18.20;99.90;;;;;;5008139;28;20219;-91
2021/09/01 08:29:42;;;;;;;4.33;1.50;;;18.30;99.90;;;;;;5009041;28;21129;-90
2021/09/01 08:32:09;;;;;;;2.20;1.20;;;18.30;99.90;;;;;;5008673;28;20217;-91
2021/09/01 08:34:35;;;;;;;5.17;2.33;;;18.10;99.90;;;;;;5009472;28;20256;-89
2021/09/01 08:37:02;;;;;;;3.00;1.20;;;17.90;99.90;;;;;;5011110;28;20206;-88
2021/09/01 08:39:28;;;;;;;1.97;1.23;;;17.90;99.90;;;;;;5007490;28;20290;-89
2021/09/01 08:41:54;;;;;;;3.30;1.73;;;17.90;99.90;;;;;;5007589;28;20207;-88
2021/09/01 08:44:20;;;;;;;2.27;1.37;;;17.90;99.90;;;;;;5009804;28;20207;-89
2021/09/01 08:46:49;;;;;;;4.07;1.80;;;18.00;99.90;;;;;;5002042;28;20194;-88
2021/09/01 08:49:18;;;;;;;2.40;1.27;;;18.20;99.90;;;;;;5017745;28;20671;-89
2021/09/01 08:51:45;;;;;;;2.57;1.27;;;18.30;99.90;;;;;;5018343;28;20225;-88
2021/09/01 08:54:12;;;;;;;1.83;1.20;;;18.30;99.90;;;;;;5034373;28;20206;-87
2021/09/01 08:56:38;;;;;;;3.77;1.30;;;18.50;99.90;;;;;;4999036;28;20243;-87
2021/09/01 08:59:04;;;;;;;6.30;1.70;;;18.50;99.90;;;;;;5015571;28;20702;-87
2021/09/01 09:01:52;;;;;;;2.77;1.87;;;18.50;99.90;;;;;;5008069;28;20712;-87
2021/09/01 09:04:27;;;;;;;22.80;6.93;;;18.50;99.90;;;;;;5014532;28;20226;-87
2021/09/01 09:07:00;;;;;;;18.57;5.77;;;18.30;99.90;;;;;;5016264;28;20203;-88
2021/09/01 09:09:32;;;;;;;6.23;2.60;;;18.30;99.90;;;;;;5016737;28;20317;-87
2021/09/01 09:12:01;;;;;;;9.00;3.30;;;18.20;99.90;;;;;;5023515;28;20699;-87
2021/09/01 09:14:28;;;;;;;15.37;4.87;;;18.20;99.90;;;;;;5014792;28;20283;-88
2021/09/01 09:17:01;;;;;;;36.93;10.50;;;18.30;99.90;;;;;;5024241;28;20846;-86
2021/09/01 09:19:51;;;;;;;23.33;10.93;;;18.30;99.90;;;;;;5014208;28;20202;-87
2021/09/01 09:22:32;;;;;;;59.97;21.53;;;18.30;99.90;;;;;;5015893;28;20218;-90
2021/09/01 09:25:13;;;;;;;38.20;14.57;;;18.40;99.90;;;;;;5014999;28;20751;-90
2021/09/01 09:27:44;;;;;;;24.33;7.73;;;18.40;99.90;;;;;;5015747;28;20715;-91
2021/09/01 09:30:20;;;;;;;31.63;10.90;;;18.70;99.90;;;;;;5023776;28;20340;-90
2021/09/01 09:33:03;;;;;;;45.63;16.23;;;18.70;99.90;;;;;;5018836;28;20257;-89
2021/09/01 09:35:50;;;;;;;46.33;15.67;;;18.80;99.90;;;;;;5017936;28;20225;-88
2021/09/01 09:38:28;;;;;;;44.83;16.30;;;18.80;99.90;;;;;;5017736;28;20314;-90
2021/09/01 09:40:55;;;;;;;55.57;22.63;;;19.00;99.90;;;;;;5018712;28;20276;-91
2021/09/01 09:43:22;;;;;;;27.30;9.70;;;19.20;99.90;;;;;;5008109;28;20193;-89
2021/09/01 09:45:58;;;;;;;21.27;10.50;;;19.10;99.90;;;;;;5008495;28;20191;-91
2021/09/01 09:48:29;;;;;;;66.43;21.37;;;19.10;99.90;;;;;;5017372;28;20218;-89
2021/09/01 09:50:56;;;;;;;28.30;11.40;;;19.10;99.90;;;;;;5018410;28;20219;-88
2021/09/01 09:53:44;;;;;;;28.23;12.33;;;19.10;99.90;;;;;;5018319;28;20230;-89
2021/09/01 09:56:26;;;;;;;30.93;10.83;;;18.90;99.90;;;;;;5019331;28;20281;-88
2021/09/01 09:58:54;;;;;;;42.33;12.67;;;19.10;99.90;;;;;;5009261;28;20238;-89
2021/09/01 10:01:23;;;;;;;46.23;16.00;;;19.20;99.90;;;;;;5019336;28;20188;-88
2021/09/01 10:03:50;;;;;;;26.93;10.20;;;19.00;99.90;;;;;;5019536;28;20178;-89
2021/09/01 10:06:17;;;;;;;26.60;9.60;;;19.10;99.90;;;;;;5018371;28;20561;-88
2021/09/01 10:08:44;;;;;;;28.93;9.77;;;19.10;99.90;;;;;;5018228;28;20217;-90
2021/09/01 10:11:12;;;;;;;41.40;13.13;;;19.40;99.90;;;;;;5009177;28;20647;-90
2021/09/01 10:13:40;;;;;;;40.13;12.37;;;19.60;99.90;;;;;;5036213;28;20184;-89
2021/09/01 10:16:27;;;;;;;12.43;6.33;;;19.70;99.90;;;;;;5035147;28;20207;-88
2021/09/01 10:19:13;;;;;;;18.40;9.03;;;19.60;99.90;;;;;;5019643;28;20284;-89
2021/09/01 10:21:50;;;;;;;33.43;11.93;;;19.40;99.90;;;;;;5018582;28;20436;-89
2021/09/01 10:24:31;;;;;;;26.10;8.53;;;19.20;99.90;;;;;;5017914;28;20289;-89
2021/09/01 10:27:23;;;;;;;30.40;12.93;;;19.30;99.90;;;;;;5020136;28;20219;-88
2021/09/01 10:29:58;;;;;;;27.07;11.03;;;19.30;99.90;;;;;;5023969;28;20305;-89
2021/09/01 10:32:31;;;;;;;32.50;14.07;;;19.50;99.90;;;;;;5021543;28;20225;-89
2021/09/01 10:35:08;;;;;;;8.87;5.13;;;19.50;99.90;;;;;;5025001;28;20277;-90
2021/09/01 10:37:41;;;;;;;11.00;4.07;;;19.90;99.90;;;;;;5017444;28;20221;-90
2021/09/01 10:40:09;;;;;;;22.47;10.27;;;20.30;99.90;;;;;;5021431;28;20235;-89
2021/09/01 10:42:42;;;;;;;20.10;7.83;;;20.80;99.90;;;;;;5016242;28;20210;-89
2021/09/01 10:45:31;;;;;;;17.80;7.53;;;20.80;99.90;;;;;;5022001;28;20218;-90
2021/09/01 10:48:01;;;;;;;9.93;4.83;;;20.40;99.90;;;;;;5020880;28;20558;-89
2021/09/01 10:50:33;;;;;;;15.40;5.87;;;20.10;99.90;;;;;;5019744;28;20223;-89
2021/09/01 10:53:04;;;;;;;14.53;5.93;;;20.30;99.90;;;;;;5019139;28;20687;-89
2021/09/01 10:55:32;;;;;;;16.83;7.33;;;20.40;99.90;;;;;;5017107;28;20198;-90
2021/09/01 10:58:33;;;;;;;12.93;5.67;;;20.50;99.90;;;;;;5010620;28;20285;-89
2021/09/01 11:01:22;;;;;;;13.97;5.73;;;20.60;99.90;;;;;;5018506;28;20225;-89
2021/09/01 11:03:47;;;;;;;15.53;6.80;;;20.30;99.90;;;;;;5034764;28;20667;-89
2021/09/01 11:06:24;;;;;;;15.93;5.63;;;20.40;99.90;;;;;;5022403;28;20221;-89
2021/09/01 11:09:14;;;;;;;17.67;8.33;;;20.90;99.90;;;;;;5020193;28;20567;-88
2021/09/01 11:11:46;;;;;;;11.17;5.03;;;20.90;99.90;;;;;;5016985;28;20225;-90
2021/09/01 11:14:33;;;;;;;13.60;6.23;;;20.70;99.90;;;;;;5019157;28;20725;-90
2021/09/01 11:17:00;;;;;;;9.90;5.27;;;19.90;99.90;;;;;;5010169;28;20227;-89
2021/09/01 11:19:30;;;;;;;8.13;3.97;;;19.70;99.90;;;;;;5019038;28;20254;-89
2021/09/01 11:21:59;;;;;;;8.97;4.13;;;19.40;99.90;;;;;;5009023;28;20191;-87
2021/09/01 11:24:26;;;;;;;8.10;4.30;;;19.10;99.90;;;;;;5006886;28;20332;-86
2021/09/01 11:26:54;;;;;;;7.20;4.07;;;19.00;99.90;;;;;;5016915;28;20233;-87
2021/09/01 11:29:32;;;;;;;13.23;5.23;;;18.80;99.90;;;;;;5014015;28;20289;-87
2021/09/01 11:31:59;;;;;;;13.50;5.47;;;18.90;99.90;;;;;;5013336;28;20226;-90
2021/09/01 11:34:24;;;;;;;10.00;4.60;;;19.00;99.90;;;;;;5006262;28;20222;-86
2021/09/01 11:36:50;;;;;;;10.93;5.43;;;18.80;99.90;;;;;;5006390;28;20272;-86
2021/09/01 11:39:17;;;;;;;9.23;5.23;;;18.90;99.90;;;;;;5006634;28;20222;-89
2021/09/01 11:41:47;;;;;;;8.57;4.07;;;18.90;99.90;;;;;;5014137;28;20235;-88
2021/09/01 11:44:14;;;;;;;7.13;3.97;;;18.80;99.90;;;;;;5007258;28;20597;-90
2021/09/01 11:46:40;;;;;;;8.27;3.90;;;18.80;99.90;;;;;;5014636;28;20885;-89
2021/09/01 11:49:11;;;;;;;10.30;5.17;;;18.70;99.90;;;;;;5007218;28;20191;-87
2021/09/01 11:51:39;;;;;;;7.43;3.83;;;18.80;99.90;;;;;;5014801;28;20234;-89
2021/09/01 11:54:06;;;;;;;8.20;3.87;;;18.90;99.90;;;;;;5014070;28;20251;-87
2021/09/01 11:56:32;;;;;;;6.93;4.00;;;19.00;99.90;;;;;;4983107;28;20222;-89
2021/09/01 11:59:17;;;;;;;4.73;2.97;;;19.20;99.90;;;;;;5014899;28;20231;-87
2021/09/01 12:01:46;;;;;;;6.97;3.33;;;19.20;99.90;;;;;;5014286;28;20222;-86
2021/09/01 12:04:15;;;;;;;5.83;3.47;;;19.30;99.90;;;;;;5014229;28;20202;-88
2021/09/01 12:06:43;;;;;;;5.60;2.80;;;19.20;99.90;;;;;;4999672;28;20207;-88
2021/09/01 12:09:13;;;;;;;5.50;3.27;;;19.30;99.90;;;;;;5021872;28;20224;-89
2021/09/01 12:12:00;;;;;;;7.83;3.90;;;19.30;99.90;;;;;;5016564;28;20693;-91
2021/09/01 12:14:31;;;;;;;8.30;3.10;;;19.20;99.90;;;;;;5018033;28;20298;-89
2021/09/01 12:17:25;;;;;;;5.93;3.17;;;19.10;99.90;;;;;;5008257;28;20375;-89
2021/09/01 12:19:57;;;;;;;3.13;2.77;;;19.30;99.90;;;;;;5008700;28;20581;-89
2021/09/01 12:22:35;;;;;;;5.67;2.93;;;19.30;99.90;;;;;;5017016;28;20195;-87
2021/09/01 12:25:07;;;;;;;5.93;3.30;;;19.30;99.90;;;;;;5015237;28;20187;-91
2021/09/01 12:27:35;;;;;;;6.30;3.27;;;19.40;99.90;;;;;;5017676;28;20219;-90
2021/09/01 12:30:03;;;;;;;8.50;3.77;;;19.30;99.90;;;;;;5008256;28;20295;-88
2021/09/01 12:32:29;;;;;;;8.60;3.30;;;19.30;99.90;;;;;;5016630;28;20228;-89
2021/09/01 12:34:57;;;;;;;6.00;2.23;;;19.30;99.90;;;;;;5008138;28;20214;-89
2021/09/01 12:37:25;;;;;;;5.50;2.83;;;19.10;99.90;;;;;;5015687;28;20718;-89
2021/09/01 12:40:06;;;;;;;9.00;3.57;;;19.00;99.90;;;;;;5015524;28;20175;-89
2021/09/01 12:42:45;;;;;;;5.67;2.60;;;19.00;99.90;;;;;;5016302;28;20234;-89
2021/09/01 12:45:20;;;;;;;6.67;3.53;;;19.00;99.90;;;;;;5018648;28;20726;-88
2021/09/01 12:48:04;;;;;;;3.87;2.67;;;19.00;99.90;;;;;;5032445;28;20206;-89
2021/09/01 12:50:32;;;;;;;3.77;3.03;;;19.00;99.90;;;;;;5032483;28;20221;-89
2021/09/01 12:52:59;;;;;;;6.93;2.83;;;19.10;99.90;;;;;;5017121;28;20222;-89